createdAt,value
2018-02-19T00:01:53.798Z,2.01
2018-02-19T00:04:21.423Z,2.02
2018-02-19T00:06:49.059Z,2.02
2018-02-19T00:09:16.735Z,2.04
2018-02-19T00:11:44.335Z,2.05
2018-02-19T00:14:12.053Z,2.04
2018-02-19T00:16:39.665Z,2.05
2018-02-19T00:19:07.353Z,2.06
2018-02-19T00:21:34.940Z,2.08
2018-02-19T00:24:02.600Z,2.09
2018-02-19T00:26:30.257Z,2.10
2018-02-19T00:28:57.925Z,2.10
2018-02-19T00:31:25.583Z,2.11
2018-02-19T00:33:53.249Z,2.12
2018-02-19T00:36:20.912Z,2.12
2018-02-19T00:38:48.582Z,2.12
2018-02-19T00:41:16.208Z,2.13
2018-02-19T00:43:43.819Z,2.15
2018-02-19T00:46:11.460Z,2.16
2018-02-19T00:48:39.126Z,2.16
2018-02-19T00:51:06.784Z,2.17
2018-02-19T00:53:34.453Z,2.14
2018-02-19T00:56:02.212Z,2.13
2018-02-19T00:58:29.876Z,2.12
2018-02-19T01:00:57.540Z,2.11
2018-02-19T01:03:25.136Z,2.10
2018-02-19T01:05:52.780Z,2.08
2018-02-19T01:08:20.389Z,2.06
2018-02-19T01:10:48.089Z,2.05
2018-02-19T01:13:15.721Z,2.03
2018-02-19T01:15:43.424Z,2.03
2018-02-19T01:18:11.076Z,2.01
2018-02-19T01:20:38.683Z,2.01
2018-02-19T01:23:06.307Z,2.00
2018-02-19T01:25:33.907Z,1.98
2018-02-19T01:28:01.537Z,1.96
2018-02-19T01:30:29.183Z,1.94
2018-02-19T01:32:56.847Z,1.93
2018-02-19T01:35:24.455Z,1.91
2018-02-19T01:37:52.172Z,1.89
2018-02-19T01:40:19.772Z,1.87
2018-02-19T01:42:47.399Z,1.87
2018-02-19T01:45:15.061Z,1.86
2018-02-19T01:47:42.728Z,1.85
2018-02-19T01:50:16.208Z,1.84
2018-02-19T01:52:43.889Z,1.83
2018-02-19T01:55:11.513Z,1.82
2018-02-19T01:57:39.124Z,1.82
2018-02-19T02:00:06.762Z,1.81
2018-02-19T02:02:34.359Z,1.79
2018-02-19T02:05:01.987Z,1.78
2018-02-19T02:07:29.600Z,1.77
2018-02-19T02:09:57.319Z,1.76
2018-02-19T02:12:24.986Z,1.75
2018-02-19T02:14:52.648Z,1.74
2018-02-19T02:17:20.307Z,1.73
2018-02-19T02:19:47.980Z,1.72
2018-02-19T02:22:15.636Z,1.70
2018-02-19T02:24:43.297Z,1.69
2018-02-19T02:27:10.927Z,1.68
2018-02-19T02:29:38.528Z,1.66
2018-02-19T02:32:06.151Z,1.64
2018-02-19T02:34:33.845Z,1.62
2018-02-19T02:37:01.508Z,1.60
2018-02-19T02:39:29.107Z,1.60
2018-02-19T02:41:56.841Z,1.59
2018-02-19T02:44:24.474Z,1.58
2018-02-19T02:46:52.080Z,1.58
2018-02-19T02:49:19.704Z,1.58
2018-02-19T02:51:47.311Z,1.58
2018-02-19T02:54:14.941Z,1.56
2018-02-19T02:56:42.609Z,1.55
2018-02-19T02:59:10.268Z,1.54
2018-02-19T03:01:37.873Z,1.51
2018-02-19T03:04:05.602Z,1.50
2018-02-19T03:06:33.260Z,1.49
2018-02-19T03:09:00.862Z,1.48
2018-02-19T03:11:28.497Z,1.46
2018-02-19T03:13:56.101Z,1.46
2018-02-19T03:16:23.729Z,1.44
2018-02-19T03:18:51.332Z,1.43
2018-02-19T03:21:18.960Z,1.43
2018-02-19T03:23:46.588Z,1.42
2018-02-19T03:26:14.248Z,1.41
2018-02-19T03:28:41.852Z,1.40
2018-02-19T03:31:09.577Z,1.40
2018-02-19T03:33:37.244Z,1.39
2018-02-19T03:36:04.868Z,1.37
2018-02-19T03:38:32.476Z,1.36
2018-02-19T03:41:00.132Z,1.35
2018-02-19T03:43:28.164Z,1.33
2018-02-19T03:45:55.860Z,1.33
2018-02-19T03:48:23.492Z,1.31
2018-02-19T03:50:51.097Z,1.30
2018-02-19T03:53:18.752Z,1.29
2018-02-19T03:55:46.356Z,1.27
2018-02-19T03:58:14.076Z,1.27
2018-02-19T04:00:41.764Z,1.25
2018-02-19T04:03:09.500Z,1.23
2018-02-19T04:05:37.113Z,1.22
2018-02-19T04:08:04.833Z,1.22
2018-02-19T04:10:32.487Z,1.22
2018-02-19T04:13:00.145Z,1.22
2018-02-19T04:15:27.768Z,1.22
2018-02-19T04:17:55.384Z,1.22
2018-02-19T04:20:23.043Z,1.22
2018-02-19T04:22:50.656Z,1.22
2018-02-19T04:25:18.288Z,1.21
2018-02-19T04:27:45.980Z,1.21
2018-02-19T04:30:13.611Z,1.20
2018-02-19T04:32:41.215Z,1.19
2018-02-19T04:35:08.918Z,1.19
2018-02-19T04:37:36.576Z,1.17
2018-02-19T04:40:04.544Z,1.17
2018-02-19T04:42:32.211Z,1.15
2018-02-19T04:45:02.341Z,1.11
2018-02-19T04:47:30.052Z,1.10
2018-02-19T04:49:57.739Z,1.07
2018-02-19T04:52:25.452Z,1.06
2018-02-19T04:54:53.188Z,1.03
2018-02-19T04:57:20.960Z,1.01
2018-02-19T04:59:48.721Z,0.97
2018-02-19T05:02:16.490Z,0.95
2018-02-19T05:04:44.179Z,0.92
2018-02-19T05:07:11.909Z,0.89
2018-02-19T05:09:39.573Z,0.88
2018-02-19T05:12:07.261Z,0.91
2018-02-19T05:14:35.000Z,0.90
2018-02-19T05:17:02.692Z,0.90
2018-02-19T05:19:30.428Z,0.89
2018-02-19T05:21:58.200Z,0.88
2018-02-19T05:24:25.912Z,0.87
2018-02-19T05:26:53.625Z,0.87
2018-02-19T05:29:21.344Z,0.87
2018-02-19T05:31:49.149Z,0.87
2018-02-19T05:34:16.917Z,0.88
2018-02-19T05:36:44.599Z,0.88
2018-02-19T05:39:12.344Z,0.88
2018-02-19T05:41:40.032Z,0.88
2018-02-19T05:44:07.760Z,0.88
2018-02-19T05:46:35.544Z,0.89
2018-02-19T05:49:03.234Z,0.89
2018-02-19T05:51:30.973Z,0.91
2018-02-19T05:53:58.664Z,0.92
2018-02-19T05:56:26.397Z,0.94
2018-02-19T05:58:54.004Z,0.95
2018-02-19T06:01:21.829Z,0.98
2018-02-19T06:03:49.585Z,1.01
2018-02-19T06:06:17.216Z,1.03
2018-02-19T06:08:44.824Z,1.06
2018-02-19T06:11:12.572Z,1.08
2018-02-19T06:13:40.184Z,1.11
2018-02-19T06:16:07.824Z,1.12
2018-02-19T06:18:35.566Z,1.15
2018-02-19T06:21:03.335Z,1.16
2018-02-19T06:23:30.992Z,1.18
2018-02-19T06:25:58.689Z,1.18
2018-02-19T06:28:26.392Z,1.18
2018-02-19T06:30:54.000Z,1.18
2018-02-19T06:33:21.643Z,1.18
2018-02-19T06:35:49.252Z,1.19
2018-02-19T06:38:16.972Z,1.19
2018-02-19T06:40:44.633Z,1.19
2018-02-19T06:43:12.400Z,1.19
2018-02-19T06:45:40.065Z,1.21
2018-02-19T06:48:07.696Z,1.22
2018-02-19T06:50:35.381Z,1.25
2018-02-19T06:53:03.044Z,1.26
2018-02-19T06:55:30.712Z,1.28
2018-02-19T06:57:58.480Z,1.30
2018-02-19T07:00:26.140Z,1.32
2018-02-19T07:02:53.744Z,1.34
2018-02-19T07:05:21.377Z,1.35
2018-02-19T07:07:48.992Z,1.40
2018-02-19T07:10:16.624Z,1.42
2018-02-19T07:12:44.252Z,1.45
2018-02-19T07:15:11.906Z,1.48
2018-02-19T07:17:39.569Z,1.50
2018-02-19T07:20:07.204Z,1.54
2018-02-19T07:22:34.816Z,1.57
2018-02-19T07:25:02.576Z,1.61
2018-02-19T07:27:30.194Z,1.66
2018-02-19T07:29:57.893Z,1.69
2018-02-19T07:32:25.505Z,1.73
2018-02-19T07:34:53.212Z,1.78
2018-02-19T07:37:20.818Z,1.82
2018-02-19T07:39:48.452Z,1.85
2018-02-19T07:42:16.056Z,1.88
2018-02-19T07:44:43.764Z,1.91
2018-02-19T07:47:11.432Z,1.94
2018-02-19T07:49:39.084Z,1.95
2018-02-19T07:52:07.462Z,1.98
2018-02-19T07:54:35.129Z,1.99
2018-02-19T07:57:02.787Z,1.99
2018-02-19T07:59:30.456Z,1.99
2018-02-19T08:01:58.113Z,1.98
2018-02-19T08:04:25.777Z,1.97
2018-02-19T08:06:53.407Z,1.98
2018-02-19T08:09:21.027Z,2.00
2018-02-19T08:11:48.661Z,2.02
2018-02-19T08:14:16.332Z,2.07
2018-02-19T08:16:43.996Z,2.12
2018-02-19T08:19:11.653Z,2.16
2018-02-19T08:21:39.300Z,2.22
2018-02-19T08:24:06.916Z,2.28
2018-02-19T08:26:34.523Z,2.33
2018-02-19T08:29:02.213Z,2.36
2018-02-19T08:31:29.869Z,2.40
2018-02-19T08:33:57.504Z,2.44
2018-02-19T08:36:25.201Z,2.50
2018-02-19T08:38:52.882Z,2.54
2018-02-19T08:41:20.520Z,2.59
2018-02-19T08:43:48.184Z,2.64
2018-02-19T08:46:15.848Z,2.67
2018-02-19T08:48:43.480Z,2.68
2018-02-19T08:51:11.096Z,2.70
2018-02-19T08:53:38.832Z,2.72
2018-02-19T08:56:06.492Z,2.74
2018-02-19T08:58:34.124Z,2.80
2018-02-19T09:01:01.828Z,2.85
2018-02-19T09:03:29.460Z,2.89
2018-02-19T09:05:57.968Z,2.93
2018-02-19T09:08:25.629Z,2.98
2018-02-19T09:10:53.250Z,3.02
2018-02-19T09:13:20.884Z,3.06
2018-02-19T09:15:48.533Z,3.09
2018-02-19T09:18:16.176Z,3.11
2018-02-19T09:20:44.556Z,3.14
2018-02-19T09:23:12.209Z,3.18
2018-02-19T09:25:39.884Z,3.24
2018-02-19T09:28:07.496Z,3.30
2018-02-19T09:30:35.209Z,3.36
2018-02-19T09:33:02.824Z,3.43
2018-02-19T09:35:30.539Z,3.50
2018-02-19T09:37:58.157Z,3.58
2018-02-19T09:40:25.792Z,3.65
2018-02-19T09:42:53.405Z,3.71
2018-02-19T09:45:21.045Z,3.75
2018-02-19T09:47:48.687Z,3.79
2018-02-19T09:50:16.308Z,3.84
2018-02-19T09:52:43.921Z,3.89
2018-02-19T09:55:11.532Z,3.95
2018-02-19T09:57:39.176Z,4.01
2018-02-19T10:00:06.856Z,4.07
2018-02-19T10:02:34.614Z,4.10
2018-02-19T10:05:02.262Z,4.12
2018-02-19T10:07:29.949Z,4.16
2018-02-19T10:09:57.604Z,4.20
2018-02-19T10:12:25.273Z,4.23
2018-02-19T10:14:52.883Z,4.24
2018-02-19T10:17:20.511Z,4.26
2018-02-19T10:19:48.161Z,4.29
2018-02-19T10:22:15.825Z,4.37
2018-02-19T10:24:43.484Z,4.47
2018-02-19T10:27:11.113Z,4.51
2018-02-19T10:29:38.726Z,4.53
2018-02-19T10:32:06.372Z,4.59
2018-02-19T10:34:34.028Z,4.66
2018-02-19T10:37:01.660Z,4.70
2018-02-19T10:39:29.352Z,4.73
2018-02-19T10:41:57.020Z,4.75
2018-02-19T10:44:25.196Z,4.76
2018-02-19T10:46:52.860Z,4.77
2018-02-19T10:49:20.523Z,4.78
2018-02-19T10:51:48.184Z,4.81
2018-02-19T10:54:15.848Z,4.83
2018-02-19T10:56:43.504Z,4.84
2018-02-19T10:59:11.180Z,4.83
2018-02-19T11:01:38.795Z,4.84
2018-02-19T11:06:38.048Z,4.83
2018-02-19T11:09:05.680Z,4.81
2018-02-19T11:11:33.293Z,4.78
2018-02-19T11:14:00.933Z,4.79
2018-02-19T11:16:28.544Z,4.80
2018-02-19T11:18:56.264Z,4.84
2018-02-19T11:21:23.921Z,4.89
2018-02-19T11:23:51.561Z,4.97
2018-02-19T11:26:19.173Z,5.03
2018-02-19T11:28:46.916Z,5.08
2018-02-19T11:31:14.524Z,5.15
2018-02-19T11:33:42.236Z,5.23
2018-02-19T11:36:09.903Z,5.32
2018-02-19T11:38:37.668Z,5.42
2018-02-19T11:41:05.332Z,5.53
2018-02-19T11:43:32.945Z,5.62
2018-02-19T11:46:00.656Z,5.70
2018-02-19T11:48:28.316Z,5.77
2018-02-19T11:50:55.980Z,5.83
2018-02-19T11:53:23.649Z,5.88
2018-02-19T11:55:51.305Z,5.93
2018-02-19T11:58:18.921Z,6.00
2018-02-19T12:00:46.564Z,6.06
2018-02-19T12:03:14.197Z,6.09
2018-02-19T12:05:41.824Z,6.15
2018-02-19T12:08:09.448Z,6.23
2018-02-19T12:10:37.076Z,6.33
2018-02-19T12:13:04.688Z,6.43
2018-02-19T12:15:32.320Z,6.52
2018-02-19T12:17:59.932Z,6.60
2018-02-19T12:20:27.628Z,6.68
2018-02-19T12:22:55.292Z,6.75
2018-02-19T12:25:22.904Z,6.82
2018-02-19T12:27:50.564Z,6.88
2018-02-19T12:30:18.180Z,6.96
2018-02-19T12:32:45.843Z,7.01
2018-02-19T12:35:13.501Z,7.08
2018-02-19T12:37:41.140Z,7.11
2018-02-19T12:40:08.748Z,7.11
2018-02-19T12:42:36.377Z,7.12
2018-02-19T12:45:03.984Z,7.13
2018-02-19T12:47:31.612Z,7.15
2018-02-19T12:49:59.276Z,7.16
2018-02-19T12:52:26.916Z,7.18
2018-02-19T12:54:54.528Z,7.17
2018-02-19T12:57:22.177Z,7.16
2018-02-19T12:59:49.793Z,7.19
2018-02-19T13:02:17.400Z,7.21
2018-02-19T13:04:45.038Z,7.24
2018-02-19T13:07:12.711Z,7.27
2018-02-19T13:09:40.372Z,7.30
2018-02-19T13:12:08.372Z,7.29
2018-02-19T13:14:36.104Z,7.28
2018-02-19T13:17:03.772Z,7.28
2018-02-19T13:19:31.428Z,7.28
2018-02-19T13:21:59.041Z,7.28
2018-02-19T13:24:26.760Z,7.27
2018-02-19T13:26:54.425Z,7.28
2018-02-19T13:29:22.088Z,7.25
2018-02-19T13:31:49.748Z,7.22
2018-02-19T13:34:17.506Z,7.22
2018-02-19T13:36:45.116Z,7.19
2018-02-19T13:39:12.856Z,7.12
2018-02-19T13:41:40.489Z,7.04
2018-02-19T13:44:08.112Z,6.98
2018-02-19T13:46:35.748Z,6.96
2018-02-19T13:49:03.360Z,6.94
2018-02-19T13:51:31.048Z,6.93
2018-02-19T13:53:58.685Z,6.94
2018-02-19T13:56:26.376Z,6.96
2018-02-19T13:58:54.140Z,6.94
2018-02-19T14:01:21.804Z,6.90
2018-02-19T14:03:49.416Z,6.86
2018-02-19T14:06:17.054Z,6.84
2018-02-19T14:08:44.672Z,6.84
2018-02-19T14:11:12.388Z,6.84
2018-02-19T14:13:39.988Z,6.82
2018-02-19T14:16:07.601Z,6.79
2018-02-19T14:18:35.232Z,6.78
2018-02-19T14:21:02.836Z,6.78
2018-02-19T14:23:30.565Z,6.76
2018-02-19T14:25:58.176Z,6.77
2018-02-19T14:28:25.816Z,6.75
2018-02-19T14:30:53.437Z,6.73
2018-02-19T14:33:21.104Z,6.73
2018-02-19T14:35:48.712Z,6.74
2018-02-19T14:38:16.348Z,6.74
2018-02-19T14:40:44.000Z,6.75
2018-02-19T14:43:11.628Z,6.73
2018-02-19T14:45:39.236Z,6.68
2018-02-19T14:48:06.980Z,6.64
2018-02-19T14:50:34.588Z,6.59
2018-02-19T14:53:02.310Z,6.53
2018-02-19T14:55:29.940Z,6.48
2018-02-19T14:57:57.641Z,6.43
2018-02-19T15:00:25.276Z,6.36
2018-02-19T15:02:52.965Z,6.32
2018-02-19T15:05:20.632Z,6.29
2018-02-19T15:07:48.245Z,6.28
2018-02-19T15:10:15.980Z,6.24
2018-02-19T15:12:43.617Z,6.22
2018-02-19T15:15:11.281Z,6.20
2018-02-19T15:17:38.892Z,6.18
2018-02-19T15:20:06.610Z,6.16
2018-02-19T15:22:34.263Z,6.14
2018-02-19T15:25:01.917Z,6.13
2018-02-19T15:27:29.529Z,6.11
2018-02-19T15:29:57.143Z,6.06
2018-02-19T15:32:24.812Z,6.01
2018-02-19T15:34:52.420Z,5.99
2018-02-19T15:37:20.055Z,5.97
2018-02-19T15:39:47.664Z,5.96
2018-02-19T15:42:15.364Z,5.96
2018-02-19T15:44:43.121Z,5.98
2018-02-19T15:47:10.756Z,5.98
2018-02-19T15:49:38.453Z,5.99
2018-02-19T15:52:06.120Z,6.00
2018-02-19T15:54:33.728Z,5.99
2018-02-19T15:57:01.360Z,5.99
2018-02-19T15:59:29.000Z,5.97
2018-02-19T16:01:56.768Z,5.94
2018-02-19T16:04:24.381Z,5.87
2018-02-19T16:06:51.988Z,5.80
2018-02-19T16:09:19.622Z,5.70
2018-02-19T16:11:47.236Z,5.62
2018-02-19T16:14:14.868Z,5.52
2018-02-19T16:16:42.488Z,5.43
2018-02-19T16:19:10.120Z,5.33
2018-02-19T16:21:37.765Z,5.24
2018-02-19T16:24:05.423Z,5.14
2018-02-19T16:26:33.036Z,5.05
2018-02-19T16:29:00.670Z,4.95
2018-02-19T16:31:28.280Z,4.87
2018-02-19T16:33:55.972Z,4.81
2018-02-19T16:36:23.588Z,4.77
2018-02-19T16:38:51.299Z,4.73
2018-02-19T16:41:18.961Z,4.68
2018-02-19T16:43:46.624Z,4.63
2018-02-19T16:46:14.261Z,4.58
2018-02-19T16:48:41.884Z,4.52
2018-02-19T16:51:09.608Z,4.47
2018-02-19T16:53:37.212Z,4.41
2018-02-19T16:56:04.933Z,4.33
2018-02-19T16:58:32.548Z,4.26
2018-02-19T17:01:00.180Z,4.21
2018-02-19T17:03:27.824Z,4.16
2018-02-19T17:05:55.483Z,4.11
2018-02-19T17:08:23.956Z,4.08
2018-02-19T17:10:51.628Z,4.02
2018-02-19T17:13:19.296Z,3.97
2018-02-19T17:15:46.961Z,3.92
2018-02-19T17:18:14.620Z,3.86
2018-02-19T17:20:42.384Z,3.80
2018-02-19T17:23:09.988Z,3.74
2018-02-19T17:25:37.604Z,3.69
2018-02-19T17:28:05.272Z,3.62
2018-02-19T17:30:32.934Z,3.57
2018-02-19T17:33:00.572Z,3.53
2018-02-19T17:35:28.180Z,3.49
2018-02-19T17:37:55.846Z,3.46
2018-02-19T17:40:23.448Z,3.43
2018-02-19T17:42:51.093Z,3.41
2018-02-19T17:45:18.808Z,3.37
2018-02-19T17:47:46.472Z,3.34
2018-02-19T17:50:14.130Z,3.31
2018-02-19T17:52:41.768Z,3.27
2018-02-19T17:55:09.380Z,3.27
2018-02-19T17:57:37.120Z,3.26
2018-02-19T18:00:04.732Z,3.28
2018-02-19T18:02:32.365Z,3.30
2018-02-19T18:04:59.976Z,3.34
2018-02-19T18:07:27.668Z,3.40
2018-02-19T18:09:55.332Z,3.45
2018-02-19T18:12:22.940Z,3.49
2018-02-19T18:14:50.576Z,3.56
2018-02-19T18:17:18.211Z,3.58
2018-02-19T18:19:45.844Z,3.58
2018-02-19T18:22:13.545Z,3.54
2018-02-19T18:24:41.176Z,3.49
2018-02-19T18:27:08.872Z,3.45
2018-02-19T18:29:36.503Z,3.41
2018-02-19T18:32:04.196Z,3.37
2018-02-19T18:34:31.860Z,3.33
2018-02-19T18:36:59.472Z,3.31
2018-02-19T18:39:27.108Z,3.28
2018-02-19T18:41:54.716Z,3.25
2018-02-19T18:44:22.400Z,3.20
2018-02-19T18:46:50.068Z,3.16
2018-02-19T18:49:17.732Z,3.10
2018-02-19T18:51:45.349Z,3.06
2018-02-19T18:54:12.960Z,3.03
2018-02-19T18:56:40.588Z,3.00
2018-02-19T18:59:08.201Z,3.00
2018-02-19T19:01:35.940Z,2.99
2018-02-19T19:04:03.552Z,2.97
2018-02-19T19:06:31.272Z,2.96
2018-02-19T19:09:10.745Z,2.95
2018-02-19T19:11:38.373Z,2.92
2018-02-19T19:14:05.985Z,2.90
2018-02-19T19:16:33.620Z,2.87
2018-02-19T19:19:01.224Z,2.84
2018-02-19T19:21:28.871Z,2.82
2018-02-19T19:23:56.482Z,2.78
2018-02-19T19:26:24.120Z,2.75
2018-02-19T19:28:51.812Z,2.72
2018-02-19T19:31:19.426Z,2.70
2018-02-19T19:33:47.122Z,2.66
2018-02-19T19:36:14.705Z,2.63
2018-02-19T19:38:42.352Z,2.59
2018-02-19T19:41:10.021Z,2.57
2018-02-19T19:43:37.651Z,2.54
2018-02-19T19:46:05.344Z,2.52
2018-02-19T19:48:33.012Z,2.49
2018-02-19T19:51:00.624Z,2.46
2018-02-19T19:53:28.332Z,2.43
2018-02-19T19:55:55.944Z,2.40
2018-02-19T19:58:23.651Z,2.37
2018-02-19T20:00:51.317Z,2.34
2018-02-19T20:03:18.988Z,2.33
2018-02-19T20:05:46.648Z,2.29
2018-02-19T20:08:14.280Z,2.27
2018-02-19T20:10:41.892Z,2.24
2018-02-19T20:13:09.528Z,2.23
2018-02-19T20:15:37.501Z,2.21
2018-02-19T20:18:05.260Z,2.20
2018-02-19T20:20:32.924Z,2.18
2018-02-19T20:23:00.536Z,2.17
2018-02-19T20:25:28.257Z,2.17
2018-02-19T20:27:55.868Z,2.18
2018-02-19T20:30:23.501Z,2.19
2018-02-19T20:32:51.108Z,2.19
2018-02-19T20:35:18.737Z,2.20
2018-02-19T20:37:46.364Z,2.20
2018-02-19T20:40:13.997Z,2.23
2018-02-19T20:42:41.612Z,2.25
2018-02-19T20:45:09.267Z,2.27
2018-02-19T20:47:36.879Z,2.29
2018-02-19T20:50:04.587Z,2.29
2018-02-19T20:52:32.231Z,2.30
2018-02-19T20:54:59.903Z,2.29
2018-02-19T20:57:27.536Z,2.29
2018-02-19T20:59:55.228Z,2.30
2018-02-19T21:02:22.882Z,2.31
2018-02-19T21:04:50.498Z,2.32
2018-02-19T21:07:18.132Z,2.31
2018-02-19T21:09:45.785Z,2.31
2018-02-19T21:12:13.440Z,2.32
2018-02-19T21:14:41.052Z,2.32
2018-02-19T21:17:08.700Z,2.32
2018-02-19T21:19:36.348Z,2.32
2018-02-19T21:22:03.994Z,2.31
2018-02-19T21:24:31.648Z,2.30
2018-02-19T21:26:59.280Z,2.30
2018-02-19T21:29:26.892Z,2.29
2018-02-19T21:31:54.524Z,2.29
2018-02-19T21:34:22.128Z,2.29
2018-02-19T21:36:49.763Z,2.29
2018-02-19T21:39:17.424Z,2.29
2018-02-19T21:41:45.080Z,2.29
2018-02-19T21:44:13.251Z,2.28
2018-02-19T21:46:40.942Z,2.27
2018-02-19T21:49:08.571Z,2.27
2018-02-19T21:51:36.184Z,2.26
2018-02-19T21:54:03.912Z,2.25
2018-02-19T21:56:31.536Z,2.25
2018-02-19T21:58:59.180Z,2.24
2018-02-19T22:01:26.789Z,2.26
2018-02-19T22:03:54.429Z,2.26
2018-02-19T22:06:22.124Z,2.27
2018-02-19T22:08:49.756Z,2.27
2018-02-19T22:11:17.369Z,2.26
2018-02-19T22:13:45.145Z,2.26
2018-02-19T22:16:12.780Z,2.23
2018-02-19T22:18:40.432Z,2.21
2018-02-19T22:21:08.064Z,2.18
2018-02-19T22:23:35.676Z,2.17
2018-02-19T22:26:03.309Z,2.15
2018-02-19T22:28:30.984Z,2.14
2018-02-19T22:30:58.648Z,2.12
2018-02-19T22:33:26.260Z,2.11
2018-02-19T22:35:53.896Z,2.08
2018-02-19T22:38:21.536Z,2.06
2018-02-19T22:40:49.172Z,2.04
2018-02-19T22:43:17.624Z,2.01
2018-02-19T22:45:45.340Z,2.00
2018-02-19T22:48:12.948Z,1.99
2018-02-19T22:50:40.664Z,1.99
2018-02-19T22:53:08.332Z,1.99
2018-02-19T22:55:36.092Z,1.98
2018-02-19T22:58:03.756Z,1.97
2018-02-19T23:00:31.425Z,1.96
2018-02-19T23:02:59.051Z,1.96
2018-02-19T23:05:26.740Z,1.97
2018-02-19T23:07:54.372Z,1.96
2018-02-19T23:10:22.076Z,1.95
2018-02-19T23:12:49.710Z,1.92
2018-02-19T23:15:17.392Z,1.91
2018-02-19T23:17:45.028Z,1.90
2018-02-19T23:20:12.651Z,1.89
2018-02-19T23:22:40.290Z,1.87
2018-02-19T23:25:07.939Z,1.86
2018-02-19T23:27:36.212Z,1.85
2018-02-19T23:30:03.893Z,1.84
2018-02-19T23:32:31.513Z,1.84
2018-02-19T23:35:02.440Z,1.84
2018-02-19T23:37:26.807Z,1.86
2018-02-19T23:39:54.544Z,1.86
2018-02-19T23:42:22.213Z,1.87
2018-02-19T23:44:49.853Z,1.87
2018-02-19T23:47:17.516Z,1.88
2018-02-19T23:49:45.188Z,1.89
2018-02-19T23:52:12.853Z,1.90
2018-02-19T23:54:40.493Z,1.90
2018-02-19T23:57:08.176Z,1.90
2018-02-19T23:59:35.840Z,1.90
